createdAt,value
2022-08-17T00:00:34.460Z,57.72
2022-08-17T00:01:51.316Z,58.17
2022-08-17T00:03:02.758Z,57.88
2022-08-17T00:04:09.280Z,58.04
2022-08-17T00:05:15.706Z,58.15
2022-08-17T00:06:21.681Z,58.15
2022-08-17T00:07:23.173Z,58.37
2022-08-17T00:08:33.228Z,58.67
2022-08-17T00:09:34.678Z,58.70
2022-08-17T00:10:37.224Z,58.51
2022-08-17T00:11:41.722Z,58.40
2022-08-17T00:12:44.767Z,58.07
2022-08-17T00:13:49.503Z,58.30
2022-08-17T00:14:50.981Z,58.31
2022-08-17T00:15:56.029Z,58.79
2022-08-17T00:16:58.839Z,58.60
2022-08-17T00:18:00.367Z,58.66
2022-08-17T00:19:07.289Z,58.84
2022-08-17T00:20:12.038Z,58.77
2022-08-17T00:21:16.371Z,58.65
2022-08-17T00:22:32.714Z,58.88
2022-08-17T00:23:37.100Z,58.99
2022-08-17T00:24:38.650Z,58.98
2022-08-17T00:25:42.155Z,58.84
2022-08-17T00:26:45.012Z,58.81
2022-08-17T00:27:46.987Z,59.03
2022-08-17T00:28:48.586Z,58.81
2022-08-17T00:29:53.351Z,58.92
2022-08-17T00:30:55.583Z,59.04
2022-08-17T00:31:57.219Z,58.91
2022-08-17T00:33:12.397Z,59.27
2022-08-17T00:34:18.944Z,59.23
2022-08-17T00:35:23.707Z,59.53
2022-08-17T00:36:25.625Z,59.76
2022-08-17T00:37:27.312Z,59.63
2022-08-17T00:38:29.589Z,60.21
2022-08-17T00:39:31.557Z,59.94
2022-08-17T00:40:44.312Z,60.07
2022-08-17T00:41:46.263Z,60.23
2022-08-17T00:42:49.299Z,60.11
2022-08-17T00:43:54.094Z,60.05
2022-08-17T00:44:55.575Z,61.15
2022-08-17T00:45:57.960Z,62.05
2022-08-17T00:46:59.451Z,61.95
2022-08-17T00:48:00.890Z,61.92
2022-08-17T00:49:03.975Z,61.21
2022-08-17T00:50:09.338Z,61.55
2022-08-17T00:51:35.614Z,61.59
2022-08-17T00:52:43.599Z,61.45
2022-08-17T00:53:54.807Z,60.86
2022-08-17T00:54:56.824Z,60.86
2022-08-17T00:56:01.697Z,60.59
2022-08-17T00:57:11.136Z,60.25
2022-08-17T00:58:12.790Z,59.77
2022-08-17T00:59:17.777Z,59.62
2022-08-17T01:00:28.129Z,59.70
2022-08-17T01:01:31.132Z,60.04
2022-08-17T01:02:42.052Z,59.93
2022-08-17T01:03:44.361Z,60.29
2022-08-17T01:04:50.149Z,60.20
2022-08-17T01:05:54.952Z,60.15
2022-08-17T01:06:58.738Z,60.00
2022-08-17T01:08:02.485Z,59.95
2022-08-17T01:09:04.864Z,60.14
2022-08-17T01:10:59.778Z,60.33
2022-08-17T01:11:33.556Z,60.41
2022-08-17T01:12:37.021Z,60.55
2022-08-17T01:13:41.856Z,60.36
2022-08-17T01:14:43.970Z,60.39
2022-08-17T01:15:58.166Z,60.59
2022-08-17T01:17:00.721Z,60.82
2022-08-17T01:18:04.426Z,60.84
2022-08-17T01:19:14.934Z,60.90
2022-08-17T01:20:16.912Z,61.48
2022-08-17T01:21:40.526Z,61.38
2022-08-17T01:22:42.062Z,60.94
2022-08-17T01:23:43.556Z,61.17
2022-08-17T01:24:53.646Z,61.49
2022-08-17T01:25:57.895Z,60.96
2022-08-17T01:26:59.989Z,60.85
2022-08-17T01:28:02.608Z,60.80
2022-08-17T01:29:06.302Z,60.94
2022-08-17T01:30:57.297Z,60.67
2022-08-17T01:31:45.504Z,60.47
2022-08-17T01:32:47.030Z,60.55
2022-08-17T01:33:48.607Z,60.65
2022-08-17T01:34:50.932Z,61.17
2022-08-17T01:35:52.622Z,60.95
2022-08-17T01:36:58.149Z,61.60
2022-08-17T01:37:59.631Z,61.35
2022-08-17T01:39:01.200Z,61.36
2022-08-17T01:40:21.679Z,60.84
2022-08-17T01:41:24.335Z,60.86
2022-08-17T01:42:33.657Z,61.07
2022-08-17T01:43:42.177Z,61.03
2022-08-17T01:44:44.394Z,60.93
2022-08-17T01:45:48.470Z,60.78
2022-08-17T01:47:05.402Z,60.51
2022-08-17T01:48:06.914Z,61.19
2022-08-17T01:49:10.904Z,61.46
2022-08-17T01:50:22.715Z,61.91
2022-08-17T01:51:33.126Z,61.78
2022-08-17T01:52:35.563Z,62.00
2022-08-17T01:53:40.682Z,61.77
2022-08-17T01:54:45.468Z,61.83
2022-08-17T01:55:55.491Z,61.45
2022-08-17T01:56:57.033Z,61.54
2022-08-17T01:57:58.623Z,61.32
2022-08-17T01:59:00.555Z,61.55
2022-08-17T02:00:03.508Z,61.51
2022-08-17T02:01:07.039Z,61.48
2022-08-17T02:02:08.763Z,61.73
2022-08-17T02:03:10.572Z,61.50
2022-08-17T02:04:12.680Z,61.59
2022-08-17T02:05:14.352Z,61.39
2022-08-17T02:06:27.924Z,61.29
2022-08-17T02:07:29.840Z,61.47
2022-08-17T02:08:38.689Z,61.49
2022-08-17T02:09:42.126Z,61.15
2022-08-17T02:10:46.840Z,61.57
2022-08-17T02:11:48.518Z,61.84
2022-08-17T02:12:51.981Z,61.82
2022-08-17T02:13:55.059Z,61.79
2022-08-17T02:15:09.626Z,62.08
2022-08-17T02:16:11.369Z,63.03
2022-08-17T02:17:13.221Z,63.71
2022-08-17T02:18:15.638Z,63.69
2022-08-17T02:19:17.849Z,63.95
2022-08-17T02:20:41.778Z,63.62
2022-08-17T02:21:43.581Z,64.10
2022-08-17T02:22:47.791Z,64.20
2022-08-17T02:23:50.157Z,64.11
2022-08-17T02:25:00.522Z,63.81
2022-08-17T02:26:03.947Z,63.38
2022-08-17T02:27:06.118Z,63.37
2022-08-17T02:28:07.587Z,63.19
2022-08-17T02:29:09.115Z,63.42
2022-08-17T02:30:59.741Z,63.36
2022-08-17T02:31:35.607Z,63.15
2022-08-17T02:32:37.849Z,63.19
2022-08-17T02:33:42.623Z,63.17
2022-08-17T02:34:45.029Z,63.14
2022-08-17T02:35:46.582Z,63.10
2022-08-17T02:36:48.614Z,63.27
2022-08-17T02:37:51.917Z,63.16
2022-08-17T02:38:58.613Z,63.06
2022-08-17T02:40:00.390Z,63.16
2022-08-17T02:41:02.110Z,63.40
2022-08-17T02:42:04.382Z,63.47
2022-08-17T02:43:07.498Z,63.82
2022-08-17T02:44:08.997Z,64.13
2022-08-17T02:45:20.556Z,64.22
2022-08-17T02:46:22.631Z,63.75
2022-08-17T02:47:24.905Z,63.95
2022-08-17T02:48:30.948Z,64.14
2022-08-17T02:49:33.288Z,64.41
2022-08-17T02:50:34.806Z,64.24
2022-08-17T02:51:36.723Z,64.19
2022-08-17T02:52:42.848Z,64.53
2022-08-17T02:53:45.444Z,64.60
2022-08-17T02:54:47.213Z,64.42
2022-08-17T02:55:48.716Z,64.06
2022-08-17T02:56:50.596Z,64.03
2022-08-17T02:57:53.115Z,63.92
2022-08-17T02:58:54.564Z,63.94
2022-08-17T02:59:56.064Z,63.73
2022-08-17T03:00:57.576Z,63.62
2022-08-17T03:02:00.614Z,63.42
2022-08-17T03:03:04.383Z,63.66
2022-08-17T03:04:05.972Z,63.07
2022-08-17T03:05:09.120Z,62.40
2022-08-17T03:06:11.156Z,62.18
2022-08-17T03:07:12.778Z,62.20
2022-08-17T03:08:15.514Z,62.32
2022-08-17T03:09:17.004Z,62.46
2022-08-17T03:10:20.054Z,62.74
2022-08-17T03:11:22.367Z,62.85
2022-08-17T03:12:23.862Z,62.96
2022-08-17T03:13:25.486Z,62.91
2022-08-17T03:14:27.063Z,63.18
2022-08-17T03:15:31.562Z,63.45
2022-08-17T03:16:33.500Z,63.62
2022-08-17T03:17:36.189Z,64.00
2022-08-17T03:18:37.802Z,64.35
2022-08-17T03:19:41.544Z,64.05
2022-08-17T03:20:44.705Z,64.13
2022-08-17T03:21:46.162Z,64.12
2022-08-17T03:23:02.935Z,63.81
2022-08-17T03:24:08.949Z,64.43
2022-08-17T03:25:13.350Z,64.41
2022-08-17T03:26:21.284Z,64.43
2022-08-17T03:27:22.942Z,64.56
2022-08-17T03:28:24.997Z,64.02
2022-08-17T03:29:26.504Z,63.77
2022-08-17T03:30:28.954Z,64.23
2022-08-17T03:31:31.773Z,64.89
2022-08-17T03:32:38.878Z,65.14
2022-08-17T03:33:40.468Z,64.91
2022-08-17T03:34:42.702Z,65.01
2022-08-17T03:35:44.778Z,65.34
2022-08-17T03:36:46.583Z,64.88
2022-08-17T03:37:48.427Z,65.28
2022-08-17T03:39:01.502Z,65.33
2022-08-17T03:40:04.480Z,65.37
2022-08-17T03:41:07.004Z,65.41
2022-08-17T03:42:32.369Z,64.91
2022-08-17T03:43:34.810Z,64.89
2022-08-17T03:44:36.509Z,65.21
2022-08-17T03:45:57.684Z,64.98
2022-08-17T03:47:17.839Z,65.11
2022-08-17T03:48:37.683Z,65.28
2022-08-17T03:49:57.600Z,65.28
2022-08-17T03:51:18.480Z,65.80
2022-08-17T03:52:38.603Z,65.64
2022-08-17T03:54:13.638Z,65.69
2022-08-17T03:55:36.015Z,65.80
2022-08-17T03:56:44.722Z,65.88
2022-08-17T03:57:46.143Z,65.86
2022-08-17T03:58:48.828Z,66.05
2022-08-17T03:59:51.475Z,66.10
2022-08-17T04:00:55.012Z,66.09
2022-08-17T04:01:59.372Z,66.26
2022-08-17T04:03:01.025Z,66.29
2022-08-17T04:04:02.618Z,66.30
2022-08-17T04:05:04.443Z,65.71
2022-08-17T04:06:06.561Z,65.85
2022-08-17T04:07:08.459Z,66.13
2022-08-17T04:08:11.018Z,66.43
2022-08-17T04:09:12.809Z,65.89
2022-08-17T04:10:14.318Z,65.84
2022-08-17T04:11:15.764Z,65.94
2022-08-17T04:12:20.111Z,66.37
2022-08-17T04:13:24.100Z,66.50
2022-08-17T04:14:27.070Z,66.52
2022-08-17T04:15:29.391Z,66.09
2022-08-17T04:16:31.751Z,65.83
2022-08-17T04:17:33.519Z,65.45
2022-08-17T04:18:34.975Z,65.55
2022-08-17T04:19:36.650Z,66.07
2022-08-17T04:20:38.173Z,65.99
2022-08-17T04:21:39.945Z,65.91
2022-08-17T04:23:02.643Z,67.31
2022-08-17T04:24:05.837Z,67.79
2022-08-17T04:25:07.243Z,67.65
2022-08-17T04:26:08.780Z,66.97
2022-08-17T04:27:10.334Z,66.76
2022-08-17T04:28:16.108Z,66.65
2022-08-17T04:29:18.485Z,67.10
2022-08-17T04:30:20.141Z,67.35
2022-08-17T04:31:21.731Z,67.19
2022-08-17T04:32:58.519Z,67.27
2022-08-17T04:33:44.902Z,66.79
2022-08-17T04:34:46.320Z,66.56
2022-08-17T04:35:50.602Z,66.59
2022-08-17T04:36:52.833Z,66.53
2022-08-17T04:37:55.162Z,66.87
2022-08-17T04:38:58.322Z,66.61
2022-08-17T04:40:18.156Z,66.56
2022-08-17T04:41:38.312Z,66.05
2022-08-17T04:42:44.825Z,66.36
2022-08-17T04:43:48.487Z,65.85
2022-08-17T04:44:49.918Z,65.80
2022-08-17T04:45:57.241Z,65.59
2022-08-17T04:46:58.794Z,65.29
2022-08-17T04:48:00.827Z,65.20
2022-08-17T04:49:08.050Z,64.38
2022-08-17T04:50:09.792Z,64.51
2022-08-17T04:51:17.409Z,64.21
2022-08-17T04:52:42.628Z,64.36
2022-08-17T04:53:43.480Z,64.83
2022-08-17T04:54:44.916Z,65.01
2022-08-17T04:55:46.352Z,65.21
2022-08-17T04:56:48.288Z,65.32
2022-08-17T04:57:49.822Z,64.96
2022-08-17T04:58:55.041Z,65.08
2022-08-17T04:59:56.477Z,64.73
2022-08-17T05:00:58.035Z,64.60
2022-08-17T05:01:59.561Z,64.21
2022-08-17T05:03:01.395Z,63.88
2022-08-17T05:04:33.006Z,64.21
2022-08-17T05:05:37.542Z,64.56
2022-08-17T05:06:38.986Z,65.02
2022-08-17T05:07:40.435Z,64.25
2022-08-17T05:08:42.369Z,63.55
2022-08-17T05:09:43.891Z,62.85
2022-08-17T05:10:45.793Z,62.58
2022-08-17T05:11:47.603Z,62.50
2022-08-17T05:13:00.647Z,62.47
2022-08-17T05:14:03.660Z,62.71
2022-08-17T05:15:05.596Z,62.45
2022-08-17T05:16:09.151Z,62.64
2022-08-17T05:17:11.109Z,62.77
2022-08-17T05:18:13.005Z,62.68
2022-08-17T05:19:14.795Z,62.60
2022-08-17T05:20:16.487Z,62.96
2022-08-17T05:21:19.182Z,63.18
2022-08-17T05:22:20.623Z,63.10
2022-08-17T05:23:24.690Z,63.16
2022-08-17T05:24:40.785Z,62.87
2022-08-17T05:25:51.411Z,62.60
2022-08-17T05:26:53.160Z,62.49
2022-08-17T05:27:57.456Z,61.93
2022-08-17T05:29:00.496Z,61.72
2022-08-17T05:30:04.374Z,61.75
2022-08-17T05:31:05.977Z,61.65
2022-08-17T05:32:38.289Z,61.74
2022-08-17T05:33:42.626Z,61.77
2022-08-17T05:34:45.828Z,61.85
2022-08-17T05:35:49.660Z,61.90
2022-08-17T05:36:51.116Z,61.87
2022-08-17T05:37:53.403Z,61.85
2022-08-17T05:38:59.043Z,61.94
2022-08-17T05:40:00.589Z,62.15
2022-08-17T05:41:04.187Z,62.33
2022-08-17T05:42:06.254Z,62.28
2022-08-17T05:43:19.927Z,62.42
2022-08-17T05:44:21.694Z,62.28
2022-08-17T05:45:32.147Z,62.33
2022-08-17T05:46:50.159Z,62.29
2022-08-17T05:47:51.702Z,62.25
2022-08-17T05:49:04.645Z,61.77
2022-08-17T05:50:09.875Z,61.91
2022-08-17T05:51:48.453Z,61.73
2022-08-17T05:53:22.725Z,61.59
2022-08-17T05:54:31.753Z,61.77
2022-08-17T05:55:50.869Z,61.90
2022-08-17T05:57:20.838Z,62.04
2022-08-17T05:58:22.790Z,62.30
2022-08-17T05:59:30.212Z,62.08
2022-08-17T06:00:36.390Z,61.91
2022-08-17T06:01:55.605Z,61.44
2022-08-17T06:03:08.917Z,61.47
2022-08-17T06:04:10.651Z,61.36
2022-08-17T06:05:27.217Z,61.35
2022-08-17T06:06:41.428Z,61.02
2022-08-17T06:07:59.255Z,60.71
2022-08-17T06:09:15.218Z,60.63
2022-08-17T06:10:33.627Z,60.47
2022-08-17T06:12:04.649Z,60.44
2022-08-17T06:13:29.379Z,60.38
2022-08-17T06:14:51.936Z,60.26
2022-08-17T06:16:01.885Z,59.92
2022-08-17T06:17:08.492Z,59.50
2022-08-17T06:18:14.823Z,59.79
2022-08-17T06:19:47.421Z,59.53
2022-08-17T06:20:56.869Z,59.20
2022-08-17T06:22:00.259Z,59.49
2022-08-17T06:23:10.662Z,59.60
2022-08-17T06:24:24.967Z,59.27
2022-08-17T06:25:33.981Z,59.52
2022-08-17T06:26:43.407Z,59.29
2022-08-17T06:27:53.522Z,59.45
2022-08-17T06:29:02.910Z,58.88
2022-08-17T06:30:20.331Z,58.73
2022-08-17T06:31:33.431Z,58.54
2022-08-17T06:32:41.923Z,58.26
2022-08-17T06:33:47.487Z,57.86
2022-08-17T06:34:49.512Z,58.00
2022-08-17T06:36:03.001Z,57.79
2022-08-17T06:37:34.184Z,57.08
2022-08-17T06:39:06.706Z,57.18
2022-08-17T06:40:57.674Z,56.33
2022-08-17T06:42:58.809Z,56.26
2022-08-17T06:43:50.343Z,55.87
2022-08-17T06:45:06.264Z,55.67
2022-08-17T06:46:41.126Z,55.84
2022-08-17T06:47:49.016Z,55.92
2022-08-17T06:49:13.801Z,54.95
2022-08-17T06:50:38.245Z,55.11
2022-08-17T06:51:58.484Z,54.74
2022-08-17T06:53:40.640Z,54.77
2022-08-17T06:54:50.800Z,54.88
2022-08-17T06:55:57.050Z,54.47
2022-08-17T06:57:15.400Z,54.63
2022-08-17T06:58:22.270Z,54.43
2022-08-17T06:59:54.676Z,53.54
2022-08-17T07:01:06.915Z,53.95
2022-08-17T07:02:15.376Z,53.57
2022-08-17T07:03:25.276Z,53.15
2022-08-17T07:04:31.382Z,53.15
2022-08-17T07:05:38.818Z,51.88
2022-08-17T07:06:49.235Z,52.30
2022-08-17T07:08:12.889Z,52.39
2022-08-17T07:09:35.944Z,51.46
2022-08-17T07:10:46.466Z,51.51
2022-08-17T07:12:02.055Z,51.48
2022-08-17T07:13:23.402Z,51.29
2022-08-17T07:14:37.030Z,50.43
2022-08-17T07:15:43.262Z,49.56
2022-08-17T07:16:48.871Z,50.27
2022-08-17T07:17:50.643Z,50.17
2022-08-17T07:18:53.596Z,49.73
2022-08-17T07:20:04.464Z,49.73
2022-08-17T07:21:17.493Z,49.20
2022-08-17T07:22:30.371Z,48.57
2022-08-17T07:24:03.275Z,48.18
2022-08-17T07:25:09.142Z,48.49
2022-08-17T07:26:13.521Z,48.15
2022-08-17T07:27:23.958Z,47.25
2022-08-17T07:28:35.234Z,47.50
2022-08-17T07:29:45.058Z,47.71
2022-08-17T07:30:51.140Z,47.81
2022-08-17T07:31:54.381Z,47.67
2022-08-17T07:33:00.805Z,47.70
2022-08-17T07:34:07.902Z,47.02
2022-08-17T07:35:44.016Z,47.17
2022-08-17T07:36:46.087Z,46.75
2022-08-17T07:37:57.973Z,46.55
2022-08-17T07:39:01.190Z,46.18
2022-08-17T07:40:22.465Z,46.17
2022-08-17T07:41:24.551Z,46.22
2022-08-17T07:42:26.028Z,45.96
2022-08-17T07:43:31.864Z,45.69
2022-08-17T07:44:54.171Z,45.18
2022-08-17T07:46:19.499Z,45.51
2022-08-17T07:47:41.454Z,45.37
2022-08-17T07:48:49.608Z,45.15
2022-08-17T07:49:51.123Z,44.84
2022-08-17T07:50:53.651Z,44.63
2022-08-17T07:52:00.014Z,43.94
2022-08-17T07:53:25.673Z,43.65
2022-08-17T07:54:37.917Z,43.76
2022-08-17T07:55:41.738Z,43.69
2022-08-17T07:56:48.115Z,43.74
2022-08-17T07:57:57.321Z,43.77
2022-08-17T07:59:23.659Z,44.17
2022-08-17T08:00:32.370Z,43.35
2022-08-17T08:01:39.452Z,43.33
2022-08-17T08:02:47.567Z,43.53
2022-08-17T08:03:52.556Z,43.37
2022-08-17T08:05:03.363Z,42.62
2022-08-17T08:06:20.725Z,42.52
2022-08-17T08:07:22.393Z,42.75
2022-08-17T08:08:42.176Z,42.49
2022-08-17T08:10:04.477Z,42.02
2022-08-17T08:11:10.409Z,42.25
2022-08-17T08:12:33.439Z,41.72
2022-08-17T08:13:42.528Z,41.28
2022-08-17T08:14:51.671Z,41.02
2022-08-17T08:15:56.184Z,41.12
2022-08-17T08:17:05.115Z,40.35
2022-08-17T08:18:38.693Z,40.97
2022-08-17T08:19:45.577Z,40.98
2022-08-17T08:21:04.888Z,40.92
2022-08-17T08:22:18.861Z,40.50
2022-08-17T08:23:26.348Z,40.96
2022-08-17T08:24:40.161Z,41.10
2022-08-17T08:26:05.104Z,40.85
2022-08-17T08:27:22.932Z,40.78
2022-08-17T08:28:44.929Z,40.35
2022-08-17T08:29:56.352Z,39.04
2022-08-17T08:31:12.840Z,38.55
2022-08-17T08:32:39.791Z,38.08
2022-08-17T08:34:09.076Z,37.73
2022-08-17T08:35:40.359Z,38.50
2022-08-17T08:37:17.816Z,38.16
2022-08-17T08:38:39.675Z,38.39
2022-08-17T08:39:58.578Z,38.08
2022-08-17T08:41:12.793Z,37.99
2022-08-17T08:42:42.316Z,37.87
2022-08-17T08:44:18.916Z,37.19
2022-08-17T08:45:44.763Z,37.14
2022-08-17T08:47:12.143Z,36.51
2022-08-17T08:48:57.867Z,36.45
2022-08-17T08:50:30.233Z,36.40
2022-08-17T08:51:55.984Z,36.88
2022-08-17T08:52:57.662Z,36.90
2022-08-17T08:54:11.188Z,35.87
2022-08-17T08:55:17.954Z,35.86
2022-08-17T08:56:31.597Z,36.02
2022-08-17T08:57:40.777Z,36.14
2022-08-17T08:58:57.360Z,36.30
2022-08-17T09:00:21.773Z,36.50
2022-08-17T09:02:13.996Z,36.15
2022-08-17T09:03:51.262Z,36.05
2022-08-17T09:05:12.729Z,36.26
2022-08-17T09:06:37.313Z,35.70
2022-08-17T09:07:47.012Z,34.95
2022-08-17T09:09:18.107Z,35.03
2022-08-17T09:10:25.516Z,34.96
2022-08-17T09:12:02.378Z,35.20
2022-08-17T09:13:24.018Z,35.50
2022-08-17T09:14:32.712Z,34.48
2022-08-17T09:15:52.323Z,34.20
2022-08-17T09:17:04.552Z,34.62
2022-08-17T09:19:02.231Z,34.33
2022-08-17T09:19:56.994Z,35.07
2022-08-17T09:21:18.286Z,34.98
2022-08-17T09:22:33.367Z,34.73
2022-08-17T09:23:45.101Z,34.63
2022-08-17T09:24:57.342Z,34.60
2022-08-17T09:26:06.154Z,33.75
2022-08-17T09:27:21.783Z,33.77
2022-08-17T09:28:31.004Z,34.13
2022-08-17T09:29:37.900Z,34.39
2022-08-17T09:30:54.330Z,34.70
2022-08-17T09:31:58.363Z,34.03
2022-08-17T09:33:07.256Z,34.33
2022-08-17T09:34:14.404Z,33.64
2022-08-17T09:35:25.187Z,33.82
2022-08-17T09:36:49.694Z,33.82
2022-08-17T09:37:52.209Z,33.42
2022-08-17T09:39:00.042Z,33.47
2022-08-17T09:40:16.683Z,33.28
2022-08-17T09:41:33.405Z,32.93
2022-08-17T09:42:54.339Z,32.92
2022-08-17T09:44:22.935Z,33.31
2022-08-17T09:45:31.361Z,33.10
2022-08-17T09:46:45.748Z,32.88
2022-08-17T09:47:56.583Z,32.78
2022-08-17T09:49:25.267Z,32.30
2022-08-17T09:51:05.707Z,31.98
2022-08-17T09:52:16.516Z,32.18
2022-08-17T09:53:19.722Z,32.37
2022-08-17T09:54:39.178Z,32.66
2022-08-17T09:56:08.935Z,32.56
2022-08-17T09:57:49.265Z,32.16
2022-08-17T09:59:42.400Z,32.21
2022-08-17T10:00:55.740Z,32.42
2022-08-17T10:02:26.947Z,31.83
2022-08-17T10:03:58.287Z,32.10
2022-08-17T10:05:10.657Z,32.37
2022-08-17T10:06:47.739Z,32.16
2022-08-17T10:08:23.980Z,31.41
2022-08-17T10:09:43.748Z,30.76
2022-08-17T10:10:52.431Z,31.13
2022-08-17T10:12:20.178Z,31.93
2022-08-17T10:14:17.481Z,31.59
2022-08-17T10:15:43.357Z,31.91
2022-08-17T10:17:03.046Z,31.72
2022-08-17T10:18:34.452Z,31.30
2022-08-17T10:19:45.442Z,31.55
2022-08-17T10:21:19.707Z,31.09
2022-08-17T10:22:53.074Z,30.70
2022-08-17T10:25:21.386Z,30.81
2022-08-17T10:26:17.303Z,30.38
2022-08-17T10:27:21.630Z,30.43
2022-08-17T10:28:29.753Z,30.26
2022-08-17T10:29:48.649Z,30.80
2022-08-17T10:31:05.473Z,29.92
2022-08-17T10:32:32.864Z,30.04
2022-08-17T10:33:53.371Z,30.13
2022-08-17T10:34:57.672Z,29.89
2022-08-17T10:36:18.455Z,29.98
2022-08-17T10:37:19.862Z,29.50
2022-08-17T10:38:37.105Z,29.19
2022-08-17T10:40:03.438Z,29.29
2022-08-17T10:41:13.842Z,29.05
2022-08-17T10:42:36.624Z,28.32
2022-08-17T10:44:28.547Z,27.75
2022-08-17T10:45:47.007Z,27.39
2022-08-17T10:47:13.116Z,27.57
2022-08-17T10:48:14.524Z,27.55
2022-08-17T10:49:18.963Z,27.43
2022-08-17T10:50:46.209Z,26.82
2022-08-17T10:51:54.414Z,27.14
2022-08-17T10:52:56.011Z,27.06
2022-08-17T10:53:58.388Z,26.65
2022-08-17T10:55:06.370Z,27.33
2022-08-17T10:56:13.917Z,27.66
2022-08-17T10:57:32.003Z,27.78
2022-08-17T10:58:55.642Z,28.05
2022-08-17T10:59:59.018Z,27.95
2022-08-17T11:01:02.180Z,28.21
2022-08-17T11:02:26.320Z,28.20
2022-08-17T11:03:28.045Z,27.51
2022-08-17T11:04:48.324Z,27.54
2022-08-17T11:06:05.212Z,27.66
2022-08-17T11:07:36.848Z,27.92
2022-08-17T11:09:02.698Z,27.71
2022-08-17T11:10:21.860Z,27.81
2022-08-17T11:11:39.106Z,27.76
2022-08-17T11:13:01.522Z,28.09
2022-08-17T11:14:18.876Z,27.71
2022-08-17T11:15:39.543Z,27.37
2022-08-17T11:16:47.895Z,27.43
2022-08-17T11:18:10.665Z,27.70
2022-08-17T11:19:12.061Z,28.43
2022-08-17T11:20:45.042Z,27.97
2022-08-17T11:22:01.721Z,27.97
2022-08-17T11:23:09.815Z,28.18
2022-08-17T11:24:22.068Z,27.91
2022-08-17T11:25:36.068Z,28.23
2022-08-17T11:26:46.174Z,27.97
2022-08-17T11:27:53.734Z,27.96
2022-08-17T11:29:10.784Z,27.99
2022-08-17T11:30:14.981Z,28.03
2022-08-17T11:31:39.055Z,28.01
2022-08-17T11:32:47.500Z,28.38
2022-08-17T11:33:59.141Z,27.91
2022-08-17T11:35:19.062Z,27.92
2022-08-17T11:36:54.524Z,28.25
2022-08-17T11:38:07.758Z,27.71
2022-08-17T11:39:25.471Z,27.12
2022-08-17T11:40:46.435Z,27.51
2022-08-17T11:42:11.760Z,27.78
2022-08-17T11:43:29.102Z,27.14
2022-08-17T11:44:51.162Z,27.20
2022-08-17T11:46:09.664Z,26.65
2022-08-17T11:47:41.287Z,27.19
2022-08-17T11:49:21.763Z,27.17
2022-08-17T11:51:24.247Z,27.18
2022-08-17T11:52:39.607Z,27.48
2022-08-17T11:53:41.151Z,27.22
2022-08-17T11:54:47.559Z,27.01
2022-08-17T11:55:52.011Z,26.82
2022-08-17T11:56:53.787Z,26.96
2022-08-17T11:58:18.678Z,26.72
2022-08-17T11:59:46.218Z,26.98
2022-08-17T12:00:49.631Z,27.08
2022-08-17T12:01:55.589Z,27.15
2022-08-17T12:03:22.274Z,27.21
2022-08-17T12:04:32.241Z,27.10
2022-08-17T12:05:35.334Z,26.88
2022-08-17T12:06:50.345Z,26.85
2022-08-17T12:08:15.159Z,26.94
2022-08-17T12:09:32.792Z,27.09
2022-08-17T12:10:40.765Z,26.88
2022-08-17T12:11:56.276Z,26.65
2022-08-17T12:13:18.037Z,27.15
2022-08-17T12:14:40.101Z,26.60
2022-08-17T12:15:53.007Z,26.57
2022-08-17T12:17:09.969Z,26.24
2022-08-17T12:18:28.120Z,26.14
2022-08-17T12:19:30.366Z,25.77
2022-08-17T12:20:42.373Z,26.66
2022-08-17T12:21:54.998Z,26.17
2022-08-17T12:23:25.606Z,26.70
2022-08-17T12:24:39.410Z,26.52
2022-08-17T12:25:44.145Z,26.16
2022-08-17T12:26:56.653Z,26.29
2022-08-17T12:28:06.367Z,26.09
2022-08-17T12:29:18.448Z,25.67
2022-08-17T12:30:38.192Z,25.33
2022-08-17T12:31:51.330Z,25.54
2022-08-17T12:32:53.823Z,25.76
2022-08-17T12:33:56.266Z,26.32
2022-08-17T12:34:58.303Z,26.28
2022-08-17T12:36:06.793Z,25.71
2022-08-17T12:37:15.863Z,26.43
2022-08-17T12:38:32.681Z,26.55
2022-08-17T12:39:35.126Z,26.39
2022-08-17T12:40:37.910Z,26.27
2022-08-17T12:41:43.410Z,26.55
2022-08-17T12:42:58.789Z,26.55
2022-08-17T12:44:15.508Z,26.05
2022-08-17T12:45:29.997Z,26.16
2022-08-17T12:46:47.370Z,26.07
2022-08-17T12:47:49.311Z,26.08
2022-08-17T12:48:58.962Z,25.37
2022-08-17T12:50:29.087Z,24.32
2022-08-17T12:51:31.804Z,24.51
2022-08-17T12:52:33.625Z,24.63
2022-08-17T12:53:35.850Z,24.44
2022-08-17T12:54:45.333Z,23.87
2022-08-17T12:55:49.086Z,24.11
2022-08-17T12:56:51.302Z,24.73
2022-08-17T12:57:58.459Z,24.18
2022-08-17T12:59:02.487Z,24.34
2022-08-17T13:00:25.629Z,23.91
2022-08-17T13:01:27.285Z,23.92
2022-08-17T13:02:51.642Z,23.46
2022-08-17T13:03:57.203Z,23.56
2022-08-17T13:05:00.945Z,22.72
2022-08-17T13:06:08.905Z,22.59
2022-08-17T13:07:11.097Z,22.64
2022-08-17T13:08:20.790Z,22.95
2022-08-17T13:09:35.235Z,23.69
2022-08-17T13:10:38.050Z,23.54
2022-08-17T13:11:55.622Z,23.87
2022-08-17T13:12:58.389Z,23.86
2022-08-17T13:14:09.302Z,23.78
2022-08-17T13:15:44.881Z,23.70
2022-08-17T13:16:53.442Z,23.80
2022-08-17T13:18:08.462Z,23.69
2022-08-17T13:19:15.241Z,24.32
2022-08-17T13:20:16.737Z,24.46
2022-08-17T13:21:26.694Z,24.44
2022-08-17T13:22:30.189Z,24.53
2022-08-17T13:23:33.040Z,24.49
2022-08-17T13:24:38.513Z,24.69
2022-08-17T13:25:40.327Z,25.10
2022-08-17T13:26:46.407Z,25.39
2022-08-17T13:27:52.613Z,25.55
2022-08-17T13:28:54.503Z,25.82
2022-08-17T13:30:02.540Z,26.01
2022-08-17T13:31:24.185Z,25.87
2022-08-17T13:32:54.207Z,26.04
2022-08-17T13:34:12.589Z,25.81
2022-08-17T13:35:29.501Z,26.33
2022-08-17T13:36:34.075Z,26.19
2022-08-17T13:37:37.029Z,26.06
2022-08-17T13:38:45.678Z,26.03
2022-08-17T13:39:47.274Z,25.79
2022-08-17T13:40:53.086Z,26.11
2022-08-17T13:41:56.120Z,25.90
2022-08-17T13:42:58.747Z,26.02
2022-08-17T13:44:00.442Z,26.23
2022-08-17T13:45:01.937Z,26.55
2022-08-17T13:46:31.113Z,26.59
2022-08-17T13:47:33.243Z,26.84
2022-08-17T13:48:35.234Z,26.65
2022-08-17T13:49:41.953Z,26.78
2022-08-17T13:50:55.663Z,26.83
2022-08-17T13:51:57.343Z,27.05
2022-08-17T13:52:59.757Z,27.18
2022-08-17T13:54:04.202Z,27.35
2022-08-17T13:55:19.796Z,27.17
2022-08-17T13:56:38.819Z,27.17
2022-08-17T13:57:46.460Z,27.28
2022-08-17T13:58:57.660Z,27.43
2022-08-17T14:00:19.262Z,27.61
2022-08-17T14:01:34.718Z,27.61
2022-08-17T14:02:36.291Z,27.51
2022-08-17T14:03:37.781Z,27.56
2022-08-17T14:04:42.027Z,27.75
2022-08-17T14:05:45.928Z,27.87
2022-08-17T14:06:54.765Z,27.81
2022-08-17T14:07:59.282Z,27.80
2022-08-17T14:09:03.287Z,27.85
2022-08-17T14:10:17.618Z,27.91
2022-08-17T14:11:19.949Z,28.14
2022-08-17T14:12:25.013Z,27.96
2022-08-17T14:13:26.593Z,28.30
2022-08-17T14:14:29.622Z,28.34
2022-08-17T14:15:56.067Z,28.38
2022-08-17T14:16:53.951Z,28.39
2022-08-17T14:17:55.459Z,28.63
2022-08-17T14:18:57.525Z,27.84
2022-08-17T14:20:00.075Z,27.74
2022-08-17T14:21:01.600Z,27.80
2022-08-17T14:22:06.417Z,28.18
2022-08-17T14:23:08.353Z,28.00
2022-08-17T14:24:28.737Z,28.28
2022-08-17T14:25:33.668Z,28.20
2022-08-17T14:26:36.105Z,27.75
2022-08-17T14:27:41.772Z,27.63
2022-08-17T14:28:56.716Z,28.01
2022-08-17T14:29:59.077Z,28.12
2022-08-17T14:31:01.288Z,28.02
2022-08-17T14:32:17.061Z,27.82
2022-08-17T14:33:22.572Z,27.76
2022-08-17T14:34:25.084Z,27.83
2022-08-17T14:35:28.425Z,28.13
2022-08-17T14:36:31.213Z,27.86
2022-08-17T14:37:34.440Z,27.84
2022-08-17T14:38:37.266Z,27.70
2022-08-17T14:39:39.099Z,28.01
2022-08-17T14:40:41.526Z,27.98
2022-08-17T14:41:43.010Z,27.66
2022-08-17T14:42:45.915Z,27.87
2022-08-17T14:43:47.558Z,27.89
2022-08-17T14:44:48.999Z,28.09
2022-08-17T14:45:50.816Z,28.07
2022-08-17T14:46:52.965Z,28.51
2022-08-17T14:47:54.397Z,28.39
2022-08-17T14:48:57.678Z,28.04
2022-08-17T14:49:59.656Z,28.31
2022-08-17T14:51:01.298Z,28.38
2022-08-17T14:52:03.058Z,28.56
2022-08-17T14:53:07.107Z,28.80
2022-08-17T14:54:08.723Z,28.92
2022-08-17T14:55:10.346Z,28.68
2022-08-17T14:56:13.598Z,29.29
2022-08-17T14:57:25.797Z,29.22
2022-08-17T14:58:35.878Z,29.28
2022-08-17T14:59:40.118Z,28.75
2022-08-17T15:00:43.868Z,28.76
2022-08-17T15:01:47.694Z,29.10
2022-08-17T15:02:53.862Z,29.47
2022-08-17T15:03:55.688Z,30.15
2022-08-17T15:05:02.240Z,30.64
2022-08-17T15:06:04.258Z,30.81